Time;durP1;ratioP1;P1;durP2;ratioP2;P2;SDS_P1;SDS_P2;PMS_P1;PMS_P2;Temp;Humidity;BMP_temperature;BMP_pressure;BME280_temperature;BME280_humidity;BME280_pressure;Samples;Min_cycle;Max_cycle;Signal;HPM_P1;HPM_P2
2023/05/18 00:00:04;;;;;;;;;;;;;;;19.21;64.20;96425.75;621302;228;64544;-60
2023/05/18 00:02:31;;;;;;;;;;;;;;;19.21;64.26;96429.20;621330;228;47213;-60
2023/05/18 00:05:00;;;;;;;;;;;;;;;19.21;64.28;96431.88;621266;228;66010;-60
2023/05/18 00:07:32;;;;;;;;;;;;;;;19.22;64.51;96432.66;621306;228;64601;-60
2023/05/18 00:09:57;;;;;;;;;;;;;;;19.22;64.45;96441.45;621155;228;64608;-59
2023/05/18 00:12:25;;;;;;;;;;;;;;;19.22;64.60;96433.45;621413;227;62806;-59
2023/05/18 00:14:52;;;;;;;;;;;;;;;19.21;65.05;96426.55;621921;228;66835;-59
2023/05/18 00:17:20;;;;;;;;;;;;;;;19.22;65.23;96428.13;621776;228;66759;-60
2023/05/18 00:19:49;;;;;;;;;;;;;;;19.22;65.00;96438.78;621982;228;63047;-60
2023/05/18 00:22:19;;;;;;;;;;;;;;;19.21;64.81;96444.40;621692;227;66964;-60
2023/05/18 00:24:47;;;;;;;;;;;;;;;19.21;64.45;96439.86;621718;228;66874;-60
2023/05/18 00:27:15;;;;;;;;;;;;;;;19.21;64.20;96442.53;621813;228;65020;-59
2023/05/18 00:29:42;;;;;;;;;;;;;;;19.22;64.43;96440.66;621942;227;64536;-60
2023/05/18 00:32:12;;;;;;;;;;;;;;;19.22;64.81;96437.98;621890;228;67487;-59
2023/05/18 00:34:39;;;;;;;;;;;;;;;19.21;64.89;96445.19;621749;227;62483;-59
2023/05/18 00:37:07;;;;;;;;;;;;;;;19.21;64.91;96445.19;621793;228;67690;-60
2023/05/18 00:39:34;;;;;;;;;;;;;;;19.21;65.17;96442.53;621861;228;64571;-60
2023/05/18 00:42:02;;;;;;;;;;;;;;;19.20;65.15;96437.45;621807;228;65826;-60
2023/05/18 00:44:30;;;;;;;;;;;;;;;19.20;65.08;96443.58;622003;228;66757;-60
2023/05/18 00:46:58;;;;;;;;;;;;;;;19.20;64.75;96440.13;621875;228;67500;-60
2023/05/18 00:49:26;;;;;;;;;;;;;;;19.20;64.36;96446.23;621929;228;65202;-60
2023/05/18 00:51:55;;;;;;;;;;;;;;;19.22;64.47;96443.31;621895;228;66866;-60
2023/05/18 00:54:24;;;;;;;;;;;;;;;19.21;64.88;96450.52;621920;228;44429;-60
2023/05/18 00:56:52;;;;;;;;;;;;;;;19.21;64.93;96447.85;621913;228;64906;-60
2023/05/18 00:59:20;;;;;;;;;;;;;;;19.20;64.99;96438.25;621928;228;67552;-60
2023/05/18 01:01:48;;;;;;;;;;;;;;;19.20;64.69;96438.25;621885;228;65245;-60
2023/05/18 01:04:16;;;;;;;;;;;;;;;19.20;64.50;96448.11;621920;228;65177;-60
2023/05/18 01:06:45;;;;;;;;;;;;;;;19.20;64.51;96440.91;621939;228;67085;-60
2023/05/18 01:09:13;;;;;;;;;;;;;;;19.19;64.35;96439.33;621709;227;63684;-60
2023/05/18 01:11:48;;;;;;;;;;;;;;;19.20;64.56;96440.13;621638;228;65017;-60
2023/05/18 01:14:28;;;;;;;;;;;;;;;19.20;64.81;96451.56;622418;227;64157;-59
2023/05/18 01:17:00;;;;;;;;;;;;;;;19.20;65.19;96442.78;622479;228;66738;-59
2023/05/18 01:19:45;;;;;;;;;;;;;;;19.19;64.99;96449.98;622623;227;63783;-60
2023/05/18 01:22:21;;;;;;;;;;;;;;;19.19;65.08;96449.98;621612;227;66631;-60
2023/05/18 01:24:48;;;;;;;;;;;;;;;19.19;65.01;96455.31;621204;228;66317;-59
2023/05/18 01:27:17;;;;;;;;;;;;;;;19.18;65.06;96451.06;621341;228;65006;-59
2023/05/18 01:29:45;;;;;;;;;;;;;;;19.18;64.93;96453.73;621292;228;67088;-59
2023/05/18 01:32:20;;;;;;;;;;;;;;;19.18;64.94;96453.73;621253;228;66896;-59
2023/05/18 01:34:50;;;;;;;;;;;;;;;19.19;65.10;96454.52;621293;228;63046;-59
2023/05/18 01:37:17;;;;;;;;;;;;;;;19.19;65.08;96447.32;621259;228;64375;-59
2023/05/18 01:39:45;;;;;;;;;;;;;;;19.19;64.92;96454.52;621251;228;65207;-59
2023/05/18 01:42:14;;;;;;;;;;;;;;;19.18;64.81;96453.73;621294;228;65246;-59
2023/05/18 01:44:47;;;;;;;;;;;;;;;19.18;64.71;96461.72;621254;228;67152;-59
2023/05/18 01:47:18;;;;;;;;;;;;;;;19.19;64.93;96457.19;621142;228;64383;-59
2023/05/18 01:49:49;;;;;;;;;;;;;;;19.19;65.37;96470.50;621241;228;65076;-59
2023/05/18 01:52:19;;;;;;;;;;;;;;;19.19;65.40;96467.84;621219;228;67671;-59
2023/05/18 01:54:48;;;;;;;;;;;;;;;19.19;65.12;96460.64;620983;228;67400;-59
2023/05/18 01:57:16;;;;;;;;;;;;;;;19.19;64.94;96470.50;621312;228;63803;-59
2023/05/18 01:59:44;;;;;;;;;;;;;;;19.18;64.57;96471.55;621295;228;64561;-59
2023/05/18 02:02:12;;;;;;;;;;;;;;;19.17;65.02;96468.09;621202;228;66211;-59
2023/05/18 02:04:39;;;;;;;;;;;;;;;19.17;65.30;96478.75;621268;228;63031;-59
2023/05/18 02:07:07;;;;;;;;;;;;;;;19.18;65.39;96476.88;621241;228;66888;-59
2023/05/18 02:09:35;;;;;;;;;;;;;;;19.18;65.34;96475.04;621285;228;64722;-59
2023/05/18 02:12:02;;;;;;;;;;;;;;;19.17;65.15;96484.08;621263;228;62979;-59
2023/05/18 02:14:30;;;;;;;;;;;;;;;19.17;65.13;96483.28;621825;226;66904;-59
2023/05/18 02:16:58;;;;;;;;;;;;;;;19.17;65.27;96472.63;621726;228;64580;-59
2023/05/18 02:19:25;;;;;;;;;;;;;;;19.17;65.49;96492.07;621893;228;65814;-59
2023/05/18 02:21:53;;;;;;;;;;;;;;;19.18;65.43;96487.53;621643;228;67556;-59
2023/05/18 02:24:22;;;;;;;;;;;;;;;19.18;65.48;96492.86;621844;228;66566;-59
2023/05/18 02:26:50;;;;;;;;;;;;;;;19.17;65.13;96493.94;621521;228;65217;-59
2023/05/18 02:29:19;;;;;;;;;;;;;;;19.18;65.25;96499.02;621595;228;67069;-59
2023/05/18 02:31:47;;;;;;;;;;;;;;;19.18;65.80;96501.67;621872;228;67153;-59
2023/05/18 02:34:15;;;;;;;;;;;;;;;19.18;65.70;96500.85;621752;228;65073;-59
2023/05/18 02:36:44;;;;;;;;;;;;;;;19.17;65.31;96493.94;621689;228;64529;-59
2023/05/18 02:39:12;;;;;;;;;;;;;;;19.17;65.09;96505.39;621861;228;67720;-59
2023/05/18 02:41:40;;;;;;;;;;;;;;;19.17;65.17;96505.39;621706;228;64968;-59
2023/05/18 02:44:07;;;;;;;;;;;;;;;19.16;65.03;96503.80;621877;228;64272;-59
2023/05/18 02:46:35;;;;;;;;;;;;;;;19.17;64.86;96504.59;621798;228;67358;-59
2023/05/18 02:49:02;;;;;;;;;;;;;;;19.17;65.10;96510.72;621701;228;65026;-59
2023/05/18 02:51:30;;;;;;;;;;;;;;;19.16;65.22;96509.13;621826;228;67549;-59
2023/05/18 02:53:57;;;;;;;;;;;;;;;19.16;65.22;96517.13;621753;228;65117;-59
2023/05/18 02:56:27;;;;;;;;;;;;;;;19.16;65.48;96516.33;621664;228;65723;-59
2023/05/18 02:58:57;;;;;;;;;;;;;;;19.16;65.29;96511.00;621722;227;45952;-60
2023/05/18 03:01:26;;;;;;;;;;;;;;;19.16;65.29;96525.12;621748;228;42865;-60
2023/05/18 03:03:56;;;;;;;;;;;;;;;19.16;65.31;96525.12;621833;228;63798;-60
2023/05/18 03:06:25;;;;;;;;;;;;;;;19.15;64.93;96515.54;622058;227;64545;-59
2023/05/18 03:08:53;;;;;;;;;;;;;;;19.16;64.98;96524.32;621497;228;67003;-59
2023/05/18 03:11:22;;;;;;;;;;;;;;;19.16;64.84;96524.32;621663;228;65026;-59
2023/05/18 03:13:50;;;;;;;;;;;;;;;19.15;64.83;96515.54;621645;227;65059;-59
2023/05/18 03:16:17;;;;;;;;;;;;;;;19.16;65.05;96522.45;621899;228;67917;-59
2023/05/18 03:18:45;;;;;;;;;;;;;;;19.15;65.58;96518.20;621877;228;63583;-59
2023/05/18 03:21:13;;;;;;;;;;;;;;;19.17;65.30;96525.91;621574;228;67192;-59
2023/05/18 03:23:40;;;;;;;;;;;;;;;19.16;65.50;96529.66;621913;228;67001;-59
2023/05/18 03:26:09;;;;;;;;;;;;;;;19.15;65.94;96534.19;620081;228;62921;-59
2023/05/18 03:28:40;;;;;;;;;;;;;;;19.15;65.58;96533.36;619409;229;67851;-60
2023/05/18 03:31:07;;;;;;;;;;;;;;;19.15;65.19;96531.52;620855;228;67312;-59
2023/05/18 03:33:35;;;;;;;;;;;;;;;19.15;64.98;96539.52;621913;228;65068;-59
2023/05/18 03:36:03;;;;;;;;;;;;;;;19.14;64.95;96535.23;621883;228;64536;-59
2023/05/18 03:38:31;;;;;;;;;;;;;;;19.14;64.81;96537.11;621849;228;66867;-59
2023/05/18 03:41:00;;;;;;;;;;;;;;;19.15;64.82;96536.02;621606;228;42272;-60
2023/05/18 03:43:31;;;;;;;;;;;;;;;19.16;64.95;96540.30;616854;228;66526;-60
2023/05/18 03:45:57;;;;;;;;;;;;;;;19.15;65.21;96536.84;621819;228;67334;-60
2023/05/18 03:48:26;;;;;;;;;;;;;;;19.15;65.26;96547.50;621805;228;66022;-59
2023/05/18 03:50:54;;;;;;;;;;;;;;;19.15;65.88;96552.01;621882;228;67617;-60
2023/05/18 03:53:22;;;;;;;;;;;;;;;19.14;65.70;96547.76;621939;228;64490;-59
2023/05/18 03:55:50;;;;;;;;;;;;;;;19.14;65.58;96558.41;621837;228;65710;-60
2023/05/18 03:58:21;;;;;;;;;;;;;;;19.14;65.18;96563.74;621964;228;66859;-60
2023/05/18 04:00:49;;;;;;;;;;;;;;;19.14;65.43;96574.39;621836;228;66988;-59
2023/05/18 04:03:16;;;;;;;;;;;;;;;19.15;65.50;96573.31;621877;228;66134;-60
2023/05/18 04:05:44;;;;;;;;;;;;;;;19.14;65.75;96583.18;621933;228;64716;-60
2023/05/18 04:08:15;;;;;;;;;;;;;;;19.15;65.97;96579.47;621754;228;67745;-60
2023/05/18 04:10:43;;;;;;;;;;;;;;;19.14;65.85;96579.72;621810;228;64987;-59
2023/05/18 04:13:12;;;;;;;;;;;;;;;19.14;65.92;96585.84;622272;227;67387;-60
2023/05/18 04:15:39;;;;;;;;;;;;;;;19.14;65.92;96591.17;623151;227;66985;-60
2023/05/18 04:18:07;;;;;;;;;;;;;;;19.14;65.67;96593.04;623102;227;64959;-60
2023/05/18 04:20:36;;;;;;;;;;;;;;;19.14;65.40;96593.83;623257;227;64914;-60
2023/05/18 04:23:04;;;;;;;;;;;;;;;19.13;65.41;96600.23;623224;227;66898;-59
2023/05/18 04:25:32;;;;;;;;;;;;;;;19.13;65.53;96594.91;623090;227;62669;-60
2023/05/18 04:28:01;;;;;;;;;;;;;;;19.13;65.51;96600.23;623146;227;67299;-60
2023/05/18 04:30:29;;;;;;;;;;;;;;;19.13;65.68;96604.77;623238;227;67053;-60
2023/05/18 04:32:58;;;;;;;;;;;;;;;19.13;64.97;96602.91;623176;227;63075;-60
2023/05/18 04:35:27;;;;;;;;;;;;;;;19.13;65.03;96605.56;623218;227;64801;-60
2023/05/18 04:37:55;;;;;;;;;;;;;;;19.13;65.60;96608.23;623190;227;66794;-60
2023/05/18 04:40:24;;;;;;;;;;;;;;;19.13;65.73;96618.88;623214;227;62641;-60
2023/05/18 04:42:51;;;;;;;;;;;;;;;19.13;65.72;96615.42;623160;227;64778;-60
2023/05/18 04:45:26;;;;;;;;;;;;;;;19.12;65.83;96611.94;623080;227;44186;-60
2023/05/18 04:47:57;;;;;;;;;;;;;;;19.13;65.45;96618.09;623225;227;42030;-60
2023/05/18 04:50:24;;;;;;;;;;;;;;;19.12;65.91;96617.27;623198;227;67295;-60
2023/05/18 04:52:56;;;;;;;;;;;;;;;19.13;65.75;96620.75;623094;227;66620;-60
2023/05/18 04:55:25;;;;;;;;;;;;;;;19.13;65.92;96620.75;623135;227;64795;-60
2023/05/18 04:57:59;;;;;;;;;;;;;;;19.12;65.62;96624.47;623080;227;64938;-60
2023/05/18 05:00:27;;;;;;;;;;;;;;;19.12;65.44;96621.80;622478;227;67336;-60
2023/05/18 05:02:56;;;;;;;;;;;;;;;19.12;65.38;96624.47;623140;227;63097;-60
2023/05/18 05:05:24;;;;;;;;;;;;;;;19.11;65.34;96631.66;623155;227;67171;-61
2023/05/18 05:07:53;;;;;;;;;;;;;;;19.11;65.34;96629.00;623174;227;64896;-60
2023/05/18 05:10:21;;;;;;;;;;;;;;;19.11;66.08;96631.66;623048;227;64887;-60
2023/05/18 05:12:50;;;;;;;;;;;;;;;19.12;66.38;96635.91;623141;227;67152;-60
2023/05/18 05:15:18;;;;;;;;;;;;;;;19.11;66.10;96636.20;622851;227;64717;-59
2023/05/18 05:17:46;;;;;;;;;;;;;;;19.11;65.72;96639.66;623223;227;66088;-61
2023/05/18 05:20:14;;;;;;;;;;;;;;;19.12;66.14;96646.56;623213;227;66713;-60
2023/05/18 05:22:42;;;;;;;;;;;;;;;19.12;65.64;96645.77;623187;227;66776;-60
2023/05/18 05:25:11;;;;;;;;;;;;;;;19.11;66.05;96647.64;623023;227;62472;-59
2023/05/18 05:27:39;;;;;;;;;;;;;;;19.10;65.95;96654.05;623103;227;67941;-59
2023/05/18 05:30:07;;;;;;;;;;;;;;;19.11;65.35;96660.96;623210;227;66787;-60
2023/05/18 05:32:36;;;;;;;;;;;;;;;19.11;65.53;96670.83;623111;227;65049;-60
2023/05/18 05:35:06;;;;;;;;;;;;;;;19.11;65.34;96673.48;621272;228;64069;-60
2023/05/18 05:37:34;;;;;;;;;;;;;;;19.11;65.30;96676.95;621275;228;64722;-60
2023/05/18 05:40:05;;;;;;;;;;;;;;;19.10;65.80;96675.36;615632;228;64596;-60
2023/05/18 05:42:33;;;;;;;;;;;;;;;19.12;66.22;96673.20;621322;228;67001;-60
2023/05/18 05:45:02;;;;;;;;;;;;;;;19.10;66.53;96674.53;621195;228;67012;-60
2023/05/18 05:47:31;;;;;;;;;;;;;;;19.10;65.92;96674.53;621330;228;41610;-60
2023/05/18 05:49:59;;;;;;;;;;;;;;;19.10;65.75;96680.68;621224;228;66984;-60
2023/05/18 05:52:27;;;;;;;;;;;;;;;19.11;66.21;96682.27;621254;228;64349;-60
2023/05/18 05:54:55;;;;;;;;;;;;;;;19.10;65.93;96693.17;621289;228;63054;-61
2023/05/18 05:57:23;;;;;;;;;;;;;;;19.10;66.06;96688.67;621201;228;67681;-60
2023/05/18 05:59:51;;;;;;;;;;;;;;;19.10;66.20;96698.50;621243;228;64718;-60
2023/05/18 06:02:20;;;;;;;;;;;;;;;19.09;65.58;96695.05;621247;228;65469;-60
2023/05/18 06:04:47;;;;;;;;;;;;;;;19.09;65.88;96695.05;621226;228;64859;-60
2023/05/18 06:07:15;;;;;;;;;;;;;;;19.09;65.46;96695.05;621320;228;67445;-60
2023/05/18 06:09:43;;;;;;;;;;;;;;;19.09;65.94;96700.37;621173;228;65570;-61
2023/05/18 06:12:10;;;;;;;;;;;;;;;19.08;68.37;96696.92;621184;228;64755;-60
2023/05/18 06:14:39;;;;;;;;;;;;;;;19.06;64.04;96706.23;621138;228;67820;-60
2023/05/18 06:17:07;;;;;;;;;;;;;;;19.07;64.12;96711.31;621246;228;65010;-61
2023/05/18 06:19:34;;;;;;;;;;;;;;;19.08;64.02;96715.56;620519;228;67588;-60
2023/05/18 06:22:02;;;;;;;;;;;;;;;19.09;63.79;96719.02;621191;227;67993;-60
2023/05/18 06:24:32;;;;;;;;;;;;;;;19.10;64.22;96717.97;621012;228;42597;-60
2023/05/18 06:27:10;;;;;;;;;;;;;;;19.10;63.91;96712.64;617562;228;48265;-59
2023/05/18 06:29:39;;;;;;;;;;;;;;;19.12;63.87;96720.35;620917;228;43802;-59
2023/05/18 06:32:15;;;;;;;;;;;;;;;19.12;64.70;96720.35;619512;227;44998;-62
2023/05/18 06:34:49;;;;;;;;;;;;;;;19.12;64.45;96723.81;621194;228;44222;-60
2023/05/18 06:37:13;;;;;;;;;;;;;;;19.12;64.90;96723.02;621144;228;67061;-60
2023/05/18 06:39:41;;;;;;;;;;;;;;;19.13;65.38;96727.30;621132;228;65777;-62
2023/05/18 06:42:10;;;;;;;;;;;;;;;19.12;65.98;96726.47;621135;228;67407;-63
2023/05/18 06:44:39;;;;;;;;;;;;;;;19.12;66.79;96737.13;620851;228;48589;-61
2023/05/18 06:47:11;;;;;;;;;;;;;;;19.11;66.89;96730.22;621111;226;42467;-62
2023/05/18 06:49:39;;;;;;;;;;;;;;;19.12;68.82;96731.01;621126;228;65026;-63
2023/05/18 06:52:08;;;;;;;;;;;;;;;19.11;69.97;96738.20;621198;228;64836;-64
2023/05/18 06:54:37;;;;;;;;;;;;;;;19.11;69.00;96734.75;621169;228;64905;-63
2023/05/18 06:57:05;;;;;;;;;;;;;;;19.10;67.84;96736.62;621174;228;65136;-61
2023/05/18 06:59:34;;;;;;;;;;;;;;;19.10;68.64;96747.27;621107;228;67083;-61
2023/05/18 07:02:02;;;;;;;;;;;;;;;19.10;68.83;96749.94;621147;228;63803;-61
2023/05/18 07:04:30;;;;;;;;;;;;;;;19.09;69.10;96750.98;621150;228;67591;-61
2023/05/18 07:07:01;;;;;;;;;;;;;;;19.10;69.36;96751.77;621186;228;64832;-61
2023/05/18 07:09:28;;;;;;;;;;;;;;;19.09;69.49;96753.64;621111;228;65865;-61
2023/05/18 07:11:56;;;;;;;;;;;;;;;19.08;69.20;96760.84;621129;228;67133;-61
2023/05/18 07:14:23;;;;;;;;;;;;;;;19.09;68.87;96750.98;621144;228;67027;-61
2023/05/18 07:16:51;;;;;;;;;;;;;;;19.08;70.16;96752.84;621180;228;62870;-61
2023/05/18 07:19:18;;;;;;;;;;;;;;;19.08;71.46;96763.50;621118;228;64901;-60
2023/05/18 07:21:46;;;;;;;;;;;;;;;19.07;71.23;96761.91;621192;228;64559;-61
2023/05/18 07:24:14;;;;;;;;;;;;;;;19.07;71.23;96761.13;621143;228;62862;-60
2023/05/18 07:26:42;;;;;;;;;;;;;;;19.07;70.98;96769.11;621200;228;65009;-60
2023/05/18 07:29:09;;;;;;;;;;;;;;;19.07;71.08;96771.77;621193;228;67373;-60
2023/05/18 07:31:39;;;;;;;;;;;;;;;19.06;71.32;96770.95;621359;227;65055;-60
2023/05/18 07:34:06;;;;;;;;;;;;;;;19.06;71.58;96770.95;623804;227;67015;-60
2023/05/18 07:36:34;;;;;;;;;;;;;;;19.05;70.98;96774.69;623791;227;64969;-60
2023/05/18 07:39:01;;;;;;;;;;;;;;;19.06;71.00;96786.14;623734;227;62688;-61
2023/05/18 07:41:30;;;;;;;;;;;;;;;19.06;71.37;96780.81;623813;227;67002;-61
2023/05/18 07:43:58;;;;;;;;;;;;;;;19.06;70.64;96791.47;623689;227;64740;-60
2023/05/18 07:46:25;;;;;;;;;;;;;;;19.10;63.84;96797.88;623705;227;65029;-58
2023/05/18 07:48:53;;;;;;;;;;;;;;;19.13;63.36;96788.56;623814;227;66814;-60
2023/05/18 07:51:21;;;;;;;;;;;;;;;19.12;66.02;96795.73;623777;227;66837;-60
2023/05/18 07:53:48;;;;;;;;;;;;;;;19.13;68.05;96797.34;623756;227;63044;-62
2023/05/18 07:56:16;;;;;;;;;;;;;;;19.12;69.84;96805.59;623747;227;65181;-61
2023/05/18 07:58:44;;;;;;;;;;;;;;;19.11;70.68;96810.13;623766;227;65734;-62
2023/05/18 08:01:11;;;;;;;;;;;;;;;19.10;70.75;96808.53;623757;227;64869;-62
2023/05/18 08:03:39;;;;;;;;;;;;;;;19.09;70.56;96806.91;623791;227;67150;-62
2023/05/18 08:06:06;;;;;;;;;;;;;;;19.10;70.50;96813.03;623801;227;67033;-62
2023/05/18 08:08:37;;;;;;;;;;;;;;;19.08;70.26;96814.11;623773;227;66729;-62
2023/05/18 08:11:05;;;;;;;;;;;;;;;19.10;70.32;96823.69;623804;227;67034;-62
2023/05/18 08:13:33;;;;;;;;;;;;;;;19.09;69.96;96820.23;623710;226;67066;-63
2023/05/18 08:16:00;;;;;;;;;;;;;;;19.10;70.22;96823.69;623768;227;65075;-63
2023/05/18 08:18:28;;;;;;;;;;;;;;;19.08;70.14;96827.42;623781;227;67178;-63
2023/05/18 08:20:55;;;;;;;;;;;;;;;19.10;70.32;96829.02;623740;227;66918;-63
2023/05/18 08:23:26;;;;;;;;;;;;;;;19.10;70.75;96829.84;623735;227;64847;-63
2023/05/18 08:25:55;;;;;;;;;;;;;;;19.10;71.45;96829.02;623723;227;65068;-60
2023/05/18 08:28:22;;;;;;;;;;;;;;;19.08;71.17;96830.09;623679;227;64273;-62
2023/05/18 08:30:51;;;;;;;;;;;;;;;19.09;70.67;96833.55;623759;227;62976;-62
2023/05/18 08:33:18;;;;;;;;;;;;;;;19.08;70.53;96832.75;623844;227;64815;-60
2023/05/18 08:35:46;;;;;;;;;;;;;;;19.09;70.05;96833.55;621686;227;64769;-61
2023/05/18 08:38:13;;;;;;;;;;;;;;;19.10;69.67;96837.01;621182;228;62723;-62
2023/05/18 08:40:51;;;;;;;;;;;;;;;19.10;69.58;96845.82;621222;228;64796;-60
2023/05/18 08:43:26;;;;;;;;;;;;;;;19.10;70.05;96851.16;620980;228;67387;-60
2023/05/18 08:45:56;;;;;;;;;;;;;;;19.11;69.93;96857.27;621019;228;64927;-61
2023/05/18 08:48:24;;;;;;;;;;;;;;;19.10;69.82;96859.14;621216;228;64948;-61
2023/05/18 08:50:53;;;;;;;;;;;;;;;19.10;69.59;96861.80;620993;228;67707;-60
2023/05/18 08:53:21;;;;;;;;;;;;;;;19.09;65.75;96862.84;621220;228;62998;-61
2023/05/18 08:55:49;;;;;;;;;;;;;;;19.10;68.54;96861.80;621118;228;64808;-61
2023/05/18 08:58:18;;;;;;;;;;;;;;;19.11;67.35;96868.72;621057;228;66933;-61
2023/05/18 09:00:46;;;;;;;;;;;;;;;19.12;68.66;96872.18;621150;228;62830;-61
2023/05/18 09:03:17;;;;;;;;;;;;;;;19.11;69.96;96874.05;621082;228;66887;-61
2023/05/18 09:05:46;;;;;;;;;;;;;;;19.12;69.57;96880.17;621107;228;67728;-61
2023/05/18 09:08:13;;;;;;;;;;;;;;;19.11;69.19;96878.58;621109;228;64960;-62
2023/05/18 09:10:41;;;;;;;;;;;;;;;19.12;68.66;96880.17;621128;228;67484;-62
2023/05/18 09:13:09;;;;;;;;;;;;;;;19.12;68.54;96878.30;619680;228;67018;-62
2023/05/18 09:15:37;;;;;;;;;;;;;;;19.12;68.87;96875.64;617264;230;65097;-62
2023/05/18 09:18:04;;;;;;;;;;;;;;;19.13;68.68;96887.91;617211;226;67118;-61
2023/05/18 09:20:32;;;;;;;;;;;;;;;19.13;68.86;96885.25;617202;230;66978;-61
2023/05/18 09:22:59;;;;;;;;;;;;;;;19.13;68.78;96884.45;617284;230;64987;-62
2023/05/18 09:25:27;;;;;;;;;;;;;;;19.14;68.90;96892.17;617222;230;66715;-62
2023/05/18 09:27:55;;;;;;;;;;;;;;;19.17;64.38;96890.84;617205;230;66683;-64
2023/05/18 09:30:24;;;;;;;;;;;;;;;19.21;63.84;96905.27;617229;230;63809;-62
2023/05/18 09:32:52;;;;;;;;;;;;;;;19.24;63.58;96920.72;617166;230;64202;-62
2023/05/18 09:35:21;;;;;;;;;;;;;;;19.26;65.74;96932.72;617181;230;66777;-62
2023/05/18 09:37:51;;;;;;;;;;;;;;;19.28;65.90;96948.42;617206;230;65114;-62
2023/05/18 09:40:19;;;;;;;;;;;;;;;19.28;66.23;96951.89;617165;230;66709;-63
2023/05/18 09:42:48;;;;;;;;;;;;;;;19.31;66.32;96945.23;617245;230;64600;-62
2023/05/18 09:45:18;;;;;;;;;;;;;;;19.32;66.55;96949.52;617236;226;65729;-61
2023/05/18 09:47:46;;;;;;;;;;;;;;;19.33;65.48;96945.78;617146;230;66879;-62
2023/05/18 09:50:13;;;;;;;;;;;;;;;19.35;64.30;96950.87;617185;230;66652;-63
2023/05/18 09:52:42;;;;;;;;;;;;;;;19.37;64.59;96948.72;617159;230;65156;-63
2023/05/18 09:55:10;;;;;;;;;;;;;;;19.38;65.21;96945.81;617107;230;65090;-64
2023/05/18 09:57:42;;;;;;;;;;;;;;;19.41;65.43;96947.15;617178;230;67305;-62
2023/05/18 10:00:11;;;;;;;;;;;;;;;19.44;62.85;96946.63;617196;230;65100;-61
2023/05/18 10:02:40;;;;;;;;;;;;;;;19.44;62.35;96944.75;617193;230;67224;-61
2023/05/18 10:05:22;;;;;;;;;;;;;;;19.44;62.15;96946.63;617205;230;67070;-61
2023/05/18 10:07:53;;;;;;;;;;;;;;;19.46;62.07;96939.17;617051;230;44703;-66
2023/05/18 10:10:22;;;;;;;;;;;;;;;19.47;62.08;96932.77;617232;230;64901;-62
2023/05/18 10:12:52;;;;;;;;;;;;;;;19.48;62.09;96921.86;618632;227;66950;-60
2023/05/18 10:15:21;;;;;;;;;;;;;;;19.49;62.04;96920.78;623085;227;65078;-62
2023/05/18 10:17:50;;;;;;;;;;;;;;;19.52;62.02;96928.25;623060;227;66940;-59
2023/05/18 10:20:18;;;;;;;;;;;;;;;19.55;62.06;96920.80;623085;227;64666;-61
2023/05/18 10:22:47;;;;;;;;;;;;;;;19.58;62.03;96929.06;623099;227;65161;-61
2023/05/18 10:25:22;;;;;;;;;;;;;;;19.61;62.06;96930.40;622973;226;67448;-60
2023/05/18 10:27:51;;;;;;;;;;;;;;;19.65;62.21;96934.16;622432;227;67172;-60
2023/05/18 10:30:19;;;;;;;;;;;;;;;19.67;62.04;96935.52;622150;228;64964;-61
2023/05/18 10:32:48;;;;;;;;;;;;;;;19.71;62.02;96925.12;622338;228;67543;-61
2023/05/18 10:35:16;;;;;;;;;;;;;;;19.71;61.89;96920.59;622380;228;65744;-60
2023/05/18 10:37:51;;;;;;;;;;;;;;;19.77;61.91;96917.93;623148;226;62749;-61
2023/05/18 10:40:17;;;;;;;;;;;;;;;19.80;61.97;96914.73;623786;225;67265;-60
2023/05/18 10:42:45;;;;;;;;;;;;;;;19.82;61.89;96909.94;623192;227;66847;-59
2023/05/18 10:45:13;;;;;;;;;;;;;;;19.85;61.90;96917.41;623632;227;62760;-59
2023/05/18 10:47:41;;;;;;;;;;;;;;;19.88;61.78;96931.00;622180;227;64813;-59
2023/05/18 10:50:09;;;;;;;;;;;;;;;19.91;61.75;96940.34;622179;227;67060;-59
2023/05/18 10:52:37;;;;;;;;;;;;;;;19.94;61.72;96945.14;623516;227;63135;-61
2023/05/18 10:55:06;;;;;;;;;;;;;;;19.98;61.68;96948.89;623668;226;67188;-60
2023/05/18 10:57:35;;;;;;;;;;;;;;;20.02;61.72;96946.48;623713;226;67147;-60
2023/05/18 11:00:06;;;;;;;;;;;;;;;20.04;61.60;96945.16;624010;226;62753;-61
2023/05/18 11:02:34;;;;;;;;;;;;;;;20.07;61.51;96952.63;624407;226;65135;-61
2023/05/18 11:05:03;;;;;;;;;;;;;;;20.09;61.57;96953.16;625763;226;64431;-61
2023/05/18 11:07:32;;;;;;;;;;;;;;;20.14;61.65;96961.17;623726;226;63829;-60
2023/05/18 11:10:04;;;;;;;;;;;;;;;20.17;61.42;96959.84;624288;226;67211;-60
2023/05/18 11:12:33;;;;;;;;;;;;;;;20.21;61.52;96960.10;623693;226;65354;-61
2023/05/18 11:15:01;;;;;;;;;;;;;;;20.24;61.58;96956.89;623137;227;64936;-61
2023/05/18 11:17:31;;;;;;;;;;;;;;;20.27;61.66;96964.36;622150;227;67036;-61
2023/05/18 11:20:11;;;;;;;;;;;;;;;20.30;61.56;96967.32;622396;225;65006;-60
2023/05/18 11:22:56;;;;;;;;;;;;;;;20.35;61.46;96977.17;628410;225;62819;-61
2023/05/18 11:25:34;;;;;;;;;;;;;;;20.37;61.62;96978.51;628369;225;65020;-60
2023/05/18 11:28:04;;;;;;;;;;;;;;;20.41;61.54;96973.45;628433;225;66984;-62
2023/05/18 11:30:35;;;;;;;;;;;;;;;20.44;61.49;96970.25;628396;225;45636;-61
2023/05/18 11:33:17;;;;;;;;;;;;;;;20.47;61.51;96969.71;628464;225;65425;-61
2023/05/18 11:36:06;;;;;;;;;;;;;;;20.50;61.34;96976.38;629019;225;49067;-61
2023/05/18 11:38:47;;;;;;;;;;;;;;;20.52;61.32;96969.70;628823;225;62794;-61
2023/05/18 11:41:28;;;;;;;;;;;;;;;20.56;61.20;96969.99;628835;225;67423;-61
2023/05/18 11:44:08;;;;;;;;;;;;;;;20.59;61.30;96974.79;628864;225;67121;-61
2023/05/18 11:46:36;;;;;;;;;;;;;;;20.60;61.28;96971.07;628884;225;62981;-61
2023/05/18 11:49:04;;;;;;;;;;;;;;;20.65;61.23;96986.27;628906;225;64811;-62
2023/05/18 11:51:32;;;;;;;;;;;;;;;20.68;61.20;96983.05;628975;225;64917;-62
2023/05/18 11:54:00;;;;;;;;;;;;;;;20.70;61.07;96979.05;628797;225;64876;-63
2023/05/18 11:56:32;;;;;;;;;;;;;;;20.73;60.94;96980.38;628963;225;67211;-63
2023/05/18 11:59:14;;;;;;;;;;;;;;;20.75;61.06;96975.58;629035;225;67015;-61
2023/05/18 12:01:42;;;;;;;;;;;;;;;20.77;60.83;96976.11;628832;225;65960;-63
2023/05/18 12:04:10;;;;;;;;;;;;;;;20.80;60.79;96980.91;627150;226;67030;-62
2023/05/18 12:06:38;;;;;;;;;;;;;;;20.82;60.73;96978.78;627737;226;66911;-62
2023/05/18 12:09:07;;;;;;;;;;;;;;;20.83;60.68;96983.83;628456;225;62953;-61
2023/05/18 12:11:34;;;;;;;;;;;;;;;20.87;60.74;96981.44;629002;225;67304;-62
2023/05/18 12:14:03;;;;;;;;;;;;;;;20.88;60.63;96985.70;629001;225;67039;-61
2023/05/18 12:16:31;;;;;;;;;;;;;;;20.89;60.67;96989.96;628972;225;65030;-62
2023/05/18 12:18:59;;;;;;;;;;;;;;;20.91;60.47;96987.83;629047;225;68014;-62
2023/05/18 12:21:26;;;;;;;;;;;;;;;20.94;60.37;96989.95;629089;225;66839;-62
2023/05/18 12:23:58;;;;;;;;;;;;;;;20.97;60.36;96993.95;628935;225;65098;-62
2023/05/18 12:26:27;;;;;;;;;;;;;;;20.99;60.22;96991.83;628990;225;67234;-62
2023/05/18 12:28:55;;;;;;;;;;;;;;;21.00;60.33;96986.19;628994;225;67261;-62
2023/05/18 12:31:23;;;;;;;;;;;;;;;21.01;60.27;96987.81;628948;225;65008;-62
2023/05/18 12:33:50;;;;;;;;;;;;;;;21.04;60.25;96981.13;629024;225;64861;-62
2023/05/18 12:36:18;;;;;;;;;;;;;;;21.05;60.06;96985.39;629037;225;66944;-63
2023/05/18 12:38:47;;;;;;;;;;;;;;;21.07;59.92;96985.92;628630;225;64976;-62
2023/05/18 12:41:25;;;;;;;;;;;;;;;21.09;59.87;96988.31;622031;228;64964;-62
2023/05/18 12:43:57;;;;;;;;;;;;;;;21.10;59.83;96987.25;622149;227;67122;-62
2023/05/18 12:46:25;;;;;;;;;;;;;;;21.11;59.76;96978.16;622484;228;65988;-62
2023/05/18 12:48:57;;;;;;;;;;;;;;;21.12;59.84;96985.13;622553;228;66743;-63
2023/05/18 12:51:30;;;;;;;;;;;;;;;21.13;59.76;96974.14;622396;228;64889;-63
2023/05/18 12:53:54;;;;;;;;;;;;;;;21.15;59.79;96974.67;622259;228;62906;-63
2023/05/18 12:56:24;;;;;;;;;;;;;;;21.17;60.02;96966.37;622388;228;65312;-64